sensor_id;sensor_type;location;lat;lon;timestamp;temperature;humidity
47600;DHT22;33323;52.124;6.018;2024-03-08T00:00:11;1.70;99.90
47600;DHT22;33323;52.124;6.018;2024-03-08T00:02:42;1.60;99.90
47600;DHT22;33323;52.124;6.018;2024-03-08T00:05:10;1.60;99.90
47600;DHT22;33323;52.124;6.018;2024-03-08T00:07:41;1.50;99.90
47600;DHT22;33323;52.124;6.018;2024-03-08T00:10:10;1.50;99.90
47600;DHT22;33323;52.124;6.018;2024-03-08T00:12:41;1.50;99.90
47600;DHT22;33323;52.124;6.018;2024-03-08T00:15:13;1.50;99.90
47600;DHT22;33323;52.124;6.018;2024-03-08T00:17:44;1.50;99.90
47600;DHT22;33323;52.124;6.018;2024-03-08T00:20:12;1.50;99.90
47600;DHT22;33323;52.124;6.018;2024-03-08T00:22:40;1.50;99.90
47600;DHT22;33323;52.124;6.018;2024-03-08T00:25:08;1.60;99.90
47600;DHT22;33323;52.124;6.018;2024-03-08T00:27:41;1.60;99.90
47600;DHT22;33323;52.124;6.018;2024-03-08T00:30:09;1.60;99.90
47600;DHT22;33323;52.124;6.018;2024-03-08T00:32:37;1.50;99.90
47600;DHT22;33323;52.124;6.018;2024-03-08T00:35:05;1.40;99.90
47600;DHT22;33323;52.124;6.018;2024-03-08T00:37:34;1.50;99.90
47600;DHT22;33323;52.124;6.018;2024-03-08T00:40:02;1.40;99.90
47600;DHT22;33323;52.124;6.018;2024-03-08T00:42:29;1.30;99.90
47600;DHT22;33323;52.124;6.018;2024-03-08T00:44:56;1.30;99.90
47600;DHT22;33323;52.124;6.018;2024-03-08T00:47:25;1.20;99.90
47600;DHT22;33323;52.124;6.018;2024-03-08T00:49:52;1.30;99.90
47600;DHT22;33323;52.124;6.018;2024-03-08T00:52:20;1.30;99.90
47600;DHT22;33323;52.124;6.018;2024-03-08T00:54:47;1.20;99.90
47600;DHT22;33323;52.124;6.018;2024-03-08T00:57:14;1.10;99.90
47600;DHT22;33323;52.124;6.018;2024-03-08T00:59:41;1.10;99.90
47600;DHT22;33323;52.124;6.018;2024-03-08T01:02:08;1.00;99.90
47600;DHT22;33323;52.124;6.018;2024-03-08T01:04:38;1.00;99.90
47600;DHT22;33323;52.124;6.018;2024-03-08T01:07:05;1.00;99.90
47600;DHT22;33323;52.124;6.018;2024-03-08T01:09:32;0.90;99.90
47600;DHT22;33323;52.124;6.018;2024-03-08T01:11:59;0.90;99.90
47600;DHT22;33323;52.124;6.018;2024-03-08T01:14:27;0.80;99.90
47600;DHT22;33323;52.124;6.018;2024-03-08T01:16:55;0.80;99.90
47600;DHT22;33323;52.124;6.018;2024-03-08T01:19:23;0.80;99.90
47600;DHT22;33323;52.124;6.018;2024-03-08T01:21:51;0.80;99.90
47600;DHT22;33323;52.124;6.018;2024-03-08T01:24:18;0.70;99.90
47600;DHT22;33323;52.124;6.018;2024-03-08T01:26:44;0.60;99.90
47600;DHT22;33323;52.124;6.018;2024-03-08T01:29:11;0.60;99.90
47600;DHT22;33323;52.124;6.018;2024-03-08T01:31:38;0.60;99.90
47600;DHT22;33323;52.124;6.018;2024-03-08T01:34:06;0.60;99.90
47600;DHT22;33323;52.124;6.018;2024-03-08T01:36:33;0.60;99.90
47600;DHT22;33323;52.124;6.018;2024-03-08T01:39:00;0.50;99.90
47600;DHT22;33323;52.124;6.018;2024-03-08T01:41:27;0.40;99.90
47600;DHT22;33323;52.124;6.018;2024-03-08T01:43:56;0.30;99.90
47600;DHT22;33323;52.124;6.018;2024-03-08T01:46:23;0.20;99.90
47600;DHT22;33323;52.124;6.018;2024-03-08T01:48:51;0.20;99.90
47600;DHT22;33323;52.124;6.018;2024-03-08T01:51:19;0.10;99.90
47600;DHT22;33323;52.124;6.018;2024-03-08T01:53:47;0.00;99.90
47600;DHT22;33323;52.124;6.018;2024-03-08T01:56:15;-0.10;99.90
47600;DHT22;33323;52.124;6.018;2024-03-08T01:58:42;0.00;99.90
47600;DHT22;33323;52.124;6.018;2024-03-08T02:01:14;0.10;99.90
47600;DHT22;33323;52.124;6.018;2024-03-08T02:03:42;0.10;99.90
47600;DHT22;33323;52.124;6.018;2024-03-08T02:06:12;0.20;99.90
47600;DHT22;33323;52.124;6.018;2024-03-08T02:08:42;0.10;99.90
47600;DHT22;33323;52.124;6.018;2024-03-08T02:11:14;0.10;99.90
47600;DHT22;33323;52.124;6.018;2024-03-08T02:13:42;0.10;99.90
47600;DHT22;33323;52.124;6.018;2024-03-08T02:16:09;0.00;99.90
47600;DHT22;33323;52.124;6.018;2024-03-08T02:18:37;0.10;99.90
47600;DHT22;33323;52.124;6.018;2024-03-08T02:21:07;-0.10;99.90
47600;DHT22;33323;52.124;6.018;2024-03-08T02:23:35;-0.10;99.90
47600;DHT22;33323;52.124;6.018;2024-03-08T02:26:04;-0.30;99.90
47600;DHT22;33323;52.124;6.018;2024-03-08T02:28:31;-0.30;99.90
47600;DHT22;33323;52.124;6.018;2024-03-08T02:30:59;-0.30;99.90
47600;DHT22;33323;52.124;6.018;2024-03-08T02:33:27;-0.40;99.90
47600;DHT22;33323;52.124;6.018;2024-03-08T02:35:55;-0.50;99.90
47600;DHT22;33323;52.124;6.018;2024-03-08T02:38:23;-0.40;99.90
47600;DHT22;33323;52.124;6.018;2024-03-08T02:40:52;-0.40;99.90
47600;DHT22;33323;52.124;6.018;2024-03-08T02:43:21;-0.40;99.90
47600;DHT22;33323;52.124;6.018;2024-03-08T02:45:52;-0.50;99.90
47600;DHT22;33323;52.124;6.018;2024-03-08T02:48:21;-0.40;99.90
47600;DHT22;33323;52.124;6.018;2024-03-08T02:50:49;-0.40;99.90
47600;DHT22;33323;52.124;6.018;2024-03-08T02:53:18;-0.40;99.90
47600;DHT22;33323;52.124;6.018;2024-03-08T02:55:49;-0.30;99.90
47600;DHT22;33323;52.124;6.018;2024-03-08T02:58:16;-0.40;99.90
47600;DHT22;33323;52.124;6.018;2024-03-08T03:00:43;-0.50;99.90
47600;DHT22;33323;52.124;6.018;2024-03-08T03:03:11;-0.60;99.90
47600;DHT22;33323;52.124;6.018;2024-03-08T03:05:38;-0.80;99.90
47600;DHT22;33323;52.124;6.018;2024-03-08T03:08:13;-0.90;99.90
47600;DHT22;33323;52.124;6.018;2024-03-08T03:10:40;-0.90;99.90
47600;DHT22;33323;52.124;6.018;2024-03-08T03:13:08;-0.90;99.90
47600;DHT22;33323;52.124;6.018;2024-03-08T03:15:35;-0.80;99.90
47600;DHT22;33323;52.124;6.018;2024-03-08T03:18:04;-0.80;99.90
47600;DHT22;33323;52.124;6.018;2024-03-08T03:20:35;-0.70;99.90
47600;DHT22;33323;52.124;6.018;2024-03-08T03:23:08;-0.80;99.90
47600;DHT22;33323;52.124;6.018;2024-03-08T03:25:36;-0.90;99.90
47600;DHT22;33323;52.124;6.018;2024-03-08T03:28:05;-0.90;99.90
47600;DHT22;33323;52.124;6.018;2024-03-08T03:30:35;-1.10;99.90
47600;DHT22;33323;52.124;6.018;2024-03-08T03:33:02;-1.00;99.90
47600;DHT22;33323;52.124;6.018;2024-03-08T03:35:36;-0.90;99.90
47600;DHT22;33323;52.124;6.018;2024-03-08T03:38:04;-1.00;99.90
47600;DHT22;33323;52.124;6.018;2024-03-08T03:40:38;-0.90;99.90
47600;DHT22;33323;52.124;6.018;2024-03-08T03:43:07;-1.00;99.90
47600;DHT22;33323;52.124;6.018;2024-03-08T03:45:35;-1.20;99.90
47600;DHT22;33323;52.124;6.018;2024-03-08T03:48:07;-1.20;99.90
47600;DHT22;33323;52.124;6.018;2024-03-08T03:50:38;-1.20;99.90
47600;DHT22;33323;52.124;6.018;2024-03-08T03:53:07;-1.20;99.90
47600;DHT22;33323;52.124;6.018;2024-03-08T03:55:35;-1.20;99.90
47600;DHT22;33323;52.124;6.018;2024-03-08T03:58:03;-1.10;99.90
47600;DHT22;33323;52.124;6.018;2024-03-08T04:00:30;-1.10;99.90
47600;DHT22;33323;52.124;6.018;2024-03-08T04:02:58;-1.10;99.90
47600;DHT22;33323;52.124;6.018;2024-03-08T04:05:27;-1.10;99.90
47600;DHT22;33323;52.124;6.018;2024-03-08T04:07:55;-1.10;99.90
47600;DHT22;33323;52.124;6.018;2024-03-08T04:10:22;-1.10;99.90
47600;DHT22;33323;52.124;6.018;2024-03-08T04:12:49;-1.20;99.90
47600;DHT22;33323;52.124;6.018;2024-03-08T04:15:16;-1.20;99.90
47600;DHT22;33323;52.124;6.018;2024-03-08T04:17:43;-1.10;99.90
47600;DHT22;33323;52.124;6.018;2024-03-08T04:20:13;-1.10;99.90
47600;DHT22;33323;52.124;6.018;2024-03-08T04:22:41;-1.20;99.90
47600;DHT22;33323;52.124;6.018;2024-03-08T04:25:08;-1.10;99.90
47600;DHT22;33323;52.124;6.018;2024-03-08T04:27:36;-1.10;99.90
47600;DHT22;33323;52.124;6.018;2024-03-08T04:30:03;-1.20;99.90
47600;DHT22;33323;52.124;6.018;2024-03-08T04:32:35;-1.40;99.90
47600;DHT22;33323;52.124;6.018;2024-03-08T04:35:02;-1.50;99.90
47600;DHT22;33323;52.124;6.018;2024-03-08T04:37:30;-1.50;99.90
47600;DHT22;33323;52.124;6.018;2024-03-08T04:39:58;-1.50;99.90
47600;DHT22;33323;52.124;6.018;2024-03-08T04:42:26;-1.50;99.90
47600;DHT22;33323;52.124;6.018;2024-03-08T04:44:54;-1.50;99.90
47600;DHT22;33323;52.124;6.018;2024-03-08T04:47:21;-1.60;99.90
47600;DHT22;33323;52.124;6.018;2024-03-08T04:49:48;-1.60;99.90
47600;DHT22;33323;52.124;6.018;2024-03-08T04:52:17;-1.60;99.90
47600;DHT22;33323;52.124;6.018;2024-03-08T04:54:44;-1.70;99.90
47600;DHT22;33323;52.124;6.018;2024-03-08T04:57:11;-1.80;99.90
47600;DHT22;33323;52.124;6.018;2024-03-08T04:59:39;-1.90;99.90
47600;DHT22;33323;52.124;6.018;2024-03-08T05:02:06;-1.90;99.90
47600;DHT22;33323;52.124;6.018;2024-03-08T05:04:34;-1.80;99.90
47600;DHT22;33323;52.124;6.018;2024-03-08T05:07:02;-1.60;99.90
47600;DHT22;33323;52.124;6.018;2024-03-08T05:09:29;-1.60;99.90
47600;DHT22;33323;52.124;6.018;2024-03-08T05:11:59;-1.50;99.90
47600;DHT22;33323;52.124;6.018;2024-03-08T05:14:26;-1.60;99.90
47600;DHT22;33323;52.124;6.018;2024-03-08T05:16:53;-1.70;99.90
47600;DHT22;33323;52.124;6.018;2024-03-08T05:19:20;-1.70;99.90
47600;DHT22;33323;52.124;6.018;2024-03-08T05:21:49;-1.60;99.90
47600;DHT22;33323;52.124;6.018;2024-03-08T05:24:17;-1.60;99.90
47600;DHT22;33323;52.124;6.018;2024-03-08T05:26:46;-1.60;99.90
47600;DHT22;33323;52.124;6.018;2024-03-08T05:29:14;-1.50;99.90
47600;DHT22;33323;52.124;6.018;2024-03-08T05:31:51;-1.60;99.90
47600;DHT22;33323;52.124;6.018;2024-03-08T05:34:22;-1.60;99.90
47600;DHT22;33323;52.124;6.018;2024-03-08T05:36:49;-1.60;99.90
47600;DHT22;33323;52.124;6.018;2024-03-08T05:39:18;-1.60;99.90
47600;DHT22;33323;52.124;6.018;2024-03-08T05:41:46;-1.70;99.90
47600;DHT22;33323;52.124;6.018;2024-03-08T05:44:13;-1.70;99.90
47600;DHT22;33323;52.124;6.018;2024-03-08T05:46:41;-1.70;99.90
47600;DHT22;33323;52.124;6.018;2024-03-08T05:49:07;-1.60;99.90
47600;DHT22;33323;52.124;6.018;2024-03-08T05:51:38;-1.60;99.90
47600;DHT22;33323;52.124;6.018;2024-03-08T05:54:08;-1.70;99.90
47600;DHT22;33323;52.124;6.018;2024-03-08T05:56:43;-1.70;99.90
47600;DHT22;33323;52.124;6.018;2024-03-08T05:59:12;-1.80;99.90
47600;DHT22;33323;52.124;6.018;2024-03-08T06:01:40;-1.90;99.90
47600;DHT22;33323;52.124;6.018;2024-03-08T06:04:09;-2.00;99.90
47600;DHT22;33323;52.124;6.018;2024-03-08T06:06:39;-1.90;99.90
47600;DHT22;33323;52.124;6.018;2024-03-08T06:09:08;-2.00;99.90
47600;DHT22;33323;52.124;6.018;2024-03-08T06:11:42;-2.00;99.90
47600;DHT22;33323;52.124;6.018;2024-03-08T06:14:10;-1.90;99.90
47600;DHT22;33323;52.124;6.018;2024-03-08T06:16:37;-1.80;99.90
47600;DHT22;33323;52.124;6.018;2024-03-08T06:19:05;-1.80;99.90
47600;DHT22;33323;52.124;6.018;2024-03-08T06:21:33;-1.70;99.90
47600;DHT22;33323;52.124;6.018;2024-03-08T06:24:00;-1.70;99.90
47600;DHT22;33323;52.124;6.018;2024-03-08T06:26:28;-1.60;99.90
47600;DHT22;33323;52.124;6.018;2024-03-08T06:28:57;-1.60;99.90
47600;DHT22;33323;52.124;6.018;2024-03-08T06:31:26;-1.50;99.90
47600;DHT22;33323;52.124;6.018;2024-03-08T06:33:53;-1.50;99.90
47600;DHT22;33323;52.124;6.018;2024-03-08T06:36:25;-1.50;99.90
47600;DHT22;33323;52.124;6.018;2024-03-08T06:38:55;-1.50;99.90
47600;DHT22;33323;52.124;6.018;2024-03-08T06:41:24;-1.50;99.90
47600;DHT22;33323;52.124;6.018;2024-03-08T06:43:51;-1.40;99.90
47600;DHT22;33323;52.124;6.018;2024-03-08T06:46:19;-1.40;99.90
47600;DHT22;33323;52.124;6.018;2024-03-08T06:48:48;-1.20;99.90
47600;DHT22;33323;52.124;6.018;2024-03-08T06:51:17;-1.10;99.90
47600;DHT22;33323;52.124;6.018;2024-03-08T06:53:45;-1.10;99.90
47600;DHT22;33323;52.124;6.018;2024-03-08T06:56:13;-0.90;99.90
47600;DHT22;33323;52.124;6.018;2024-03-08T06:58:41;-0.80;99.90
47600;DHT22;33323;52.124;6.018;2024-03-08T07:01:09;-0.80;99.90
47600;DHT22;33323;52.124;6.018;2024-03-08T07:03:41;-0.70;99.90
47600;DHT22;33323;52.124;6.018;2024-03-08T07:06:11;-0.50;99.90
47600;DHT22;33323;52.124;6.018;2024-03-08T07:08:39;-0.40;99.90
47600;DHT22;33323;52.124;6.018;2024-03-08T07:11:07;-0.40;99.90
47600;DHT22;33323;52.124;6.018;2024-03-08T07:13:34;-0.10;99.90
47600;DHT22;33323;52.124;6.018;2024-03-08T07:16:02;0.10;99.90
47600;DHT22;33323;52.124;6.018;2024-03-08T07:18:30;0.20;99.90
47600;DHT22;33323;52.124;6.018;2024-03-08T07:20:58;0.30;99.90
47600;DHT22;33323;52.124;6.018;2024-03-08T07:23:25;0.30;99.90
47600;DHT22;33323;52.124;6.018;2024-03-08T07:26:15;0.50;99.90
47600;DHT22;33323;52.124;6.018;2024-03-08T07:28:44;0.60;99.90
47600;DHT22;33323;52.124;6.018;2024-03-08T07:31:11;0.70;99.90
47600;DHT22;33323;52.124;6.018;2024-03-08T07:33:39;0.80;99.90
47600;DHT22;33323;52.124;6.018;2024-03-08T07:36:07;0.90;99.90
47600;DHT22;33323;52.124;6.018;2024-03-08T07:38:35;1.00;99.90
47600;DHT22;33323;52.124;6.018;2024-03-08T07:41:03;1.10;99.90
47600;DHT22;33323;52.124;6.018;2024-03-08T07:43:32;1.10;99.90
47600;DHT22;33323;52.124;6.018;2024-03-08T07:46:00;1.20;99.90
47600;DHT22;33323;52.124;6.018;2024-03-08T07:48:28;1.30;99.90
47600;DHT22;33323;52.124;6.018;2024-03-08T07:50:55;1.40;99.90
47600;DHT22;33323;52.124;6.018;2024-03-08T07:53:23;1.50;99.90
47600;DHT22;33323;52.124;6.018;2024-03-08T07:55:52;1.60;99.90
47600;DHT22;33323;52.124;6.018;2024-03-08T07:58:19;1.60;99.90
47600;DHT22;33323;52.124;6.018;2024-03-08T08:00:47;1.70;99.90
47600;DHT22;33323;52.124;6.018;2024-03-08T08:03:16;1.80;99.90
47600;DHT22;33323;52.124;6.018;2024-03-08T08:05:48;1.80;99.90
47600;DHT22;33323;52.124;6.018;2024-03-08T08:08:16;1.90;99.90
47600;DHT22;33323;52.124;6.018;2024-03-08T08:10:43;1.90;99.90
47600;DHT22;33323;52.124;6.018;2024-03-08T08:13:10;2.00;99.90
47600;DHT22;33323;52.124;6.018;2024-03-08T08:15:38;2.10;99.90
47600;DHT22;33323;52.124;6.018;2024-03-08T08:18:05;2.20;99.90
47600;DHT22;33323;52.124;6.018;2024-03-08T08:20:34;2.20;99.90
47600;DHT22;33323;52.124;6.018;2024-03-08T08:23:03;2.30;99.90
47600;DHT22;33323;52.124;6.018;2024-03-08T08:25:31;2.40;99.90
47600;DHT22;33323;52.124;6.018;2024-03-08T08:27:59;2.40;99.90
47600;DHT22;33323;52.124;6.018;2024-03-08T08:30:26;2.50;99.90
47600;DHT22;33323;52.124;6.018;2024-03-08T08:32:54;2.60;99.90
47600;DHT22;33323;52.124;6.018;2024-03-08T08:35:25;2.60;99.90
47600;DHT22;33323;52.124;6.018;2024-03-08T08:37:53;2.70;99.90
47600;DHT22;33323;52.124;6.018;2024-03-08T08:40:20;2.80;99.90
47600;DHT22;33323;52.124;6.018;2024-03-08T08:42:49;2.90;99.90
47600;DHT22;33323;52.124;6.018;2024-03-08T08:45:17;3.00;99.90
47600;DHT22;33323;52.124;6.018;2024-03-08T08:47:51;3.00;99.90
47600;DHT22;33323;52.124;6.018;2024-03-08T08:50:22;3.20;99.90
47600;DHT22;33323;52.124;6.018;2024-03-08T08:52:51;3.20;99.90
47600;DHT22;33323;52.124;6.018;2024-03-08T08:55:19;3.40;99.90
47600;DHT22;33323;52.124;6.018;2024-03-08T08:57:53;3.50;99.90
47600;DHT22;33323;52.124;6.018;2024-03-08T09:00:22;3.60;99.90
47600;DHT22;33323;52.124;6.018;2024-03-08T09:02:54;3.90;99.90
47600;DHT22;33323;52.124;6.018;2024-03-08T09:05:26;4.00;99.90
47600;DHT22;33323;52.124;6.018;2024-03-08T09:07:54;4.20;99.90
47600;DHT22;33323;52.124;6.018;2024-03-08T09:10:22;4.40;99.90
47600;DHT22;33323;52.124;6.018;2024-03-08T09:12:57;4.50;99.90
47600;DHT22;33323;52.124;6.018;2024-03-08T09:15:25;4.80;99.90
47600;DHT22;33323;52.124;6.018;2024-03-08T09:17:56;4.90;99.90
47600;DHT22;33323;52.124;6.018;2024-03-08T09:20:24;4.90;99.90
47600;DHT22;33323;52.124;6.018;2024-03-08T09:22:52;5.00;99.90
47600;DHT22;33323;52.124;6.018;2024-03-08T09:25:21;5.20;99.90
47600;DHT22;33323;52.124;6.018;2024-03-08T09:27:49;5.20;99.90
47600;DHT22;33323;52.124;6.018;2024-03-08T09:30:17;5.30;99.90
47600;DHT22;33323;52.124;6.018;2024-03-08T09:32:44;5.30;99.90
47600;DHT22;33323;52.124;6.018;2024-03-08T09:35:13;5.40;99.90
47600;DHT22;33323;52.124;6.018;2024-03-08T09:37:42;5.50;99.90
47600;DHT22;33323;52.124;6.018;2024-03-08T09:40:10;5.70;99.90
47600;DHT22;33323;52.124;6.018;2024-03-08T09:42:42;5.90;99.90
47600;DHT22;33323;52.124;6.018;2024-03-08T09:45:11;6.00;99.90
47600;DHT22;33323;52.124;6.018;2024-03-08T09:47:48;6.10;99.90
47600;DHT22;33323;52.124;6.018;2024-03-08T09:50:18;6.20;99.90
47600;DHT22;33323;52.124;6.018;2024-03-08T09:52:48;6.30;99.90
47600;DHT22;33323;52.124;6.018;2024-03-08T09:55:16;6.40;99.90
47600;DHT22;33323;52.124;6.018;2024-03-08T09:57:51;6.60;99.90
47600;DHT22;33323;52.124;6.018;2024-03-08T10:00:38;6.60;99.90
47600;DHT22;33323;52.124;6.018;2024-03-08T10:03:05;6.60;99.90
47600;DHT22;33323;52.124;6.018;2024-03-08T10:05:33;6.60;99.90
47600;DHT22;33323;52.124;6.018;2024-03-08T10:08:02;6.90;99.90
47600;DHT22;33323;52.124;6.018;2024-03-08T10:10:34;6.90;99.90
47600;DHT22;33323;52.124;6.018;2024-03-08T10:13:05;6.90;99.90
47600;DHT22;33323;52.124;6.018;2024-03-08T10:15:33;7.10;99.90
47600;DHT22;33323;52.124;6.018;2024-03-08T10:18:02;7.20;99.90
47600;DHT22;33323;52.124;6.018;2024-03-08T10:20:33;7.10;99.90
47600;DHT22;33323;52.124;6.018;2024-03-08T10:23:01;7.40;99.90
47600;DHT22;33323;52.124;6.018;2024-03-08T10:25:37;7.70;99.90
47600;DHT22;33323;52.124;6.018;2024-03-08T10:28:05;7.70;99.90
47600;DHT22;33323;52.124;6.018;2024-03-08T10:30:34;7.70;99.90
47600;DHT22;33323;52.124;6.018;2024-03-08T10:33:01;7.90;99.90
47600;DHT22;33323;52.124;6.018;2024-03-08T10:35:32;7.90;99.90
47600;DHT22;33323;52.124;6.018;2024-03-08T10:38:01;8.00;99.90
47600;DHT22;33323;52.124;6.018;2024-03-08T10:40:35;7.80;99.90
47600;DHT22;33323;52.124;6.018;2024-03-08T10:43:18;7.60;99.90
47600;DHT22;33323;52.124;6.018;2024-03-08T10:46:13;8.00;99.90
47600;DHT22;33323;52.124;6.018;2024-03-08T10:48:52;8.10;99.90
47600;DHT22;33323;52.124;6.018;2024-03-08T10:51:24;8.20;99.90
47600;DHT22;33323;52.124;6.018;2024-03-08T10:53:54;8.40;99.90
47600;DHT22;33323;52.124;6.018;2024-03-08T10:56:23;8.50;99.90
47600;DHT22;33323;52.124;6.018;2024-03-08T10:58:54;8.50;99.90
47600;DHT22;33323;52.124;6.018;2024-03-08T11:01:23;8.30;99.90
47600;DHT22;33323;52.124;6.018;2024-03-08T11:03:56;8.50;99.90
47600;DHT22;33323;52.124;6.018;2024-03-08T11:06:50;8.60;99.90
47600;DHT22;33323;52.124;6.018;2024-03-08T11:09:35;8.70;99.90
47600;DHT22;33323;52.124;6.018;2024-03-08T11:15:15;8.80;99.90
47600;DHT22;33323;52.124;6.018;2024-03-08T11:17:50;8.60;99.90
47600;DHT22;33323;52.124;6.018;2024-03-08T11:20:19;8.70;99.90
47600;DHT22;33323;52.124;6.018;2024-03-08T11:22:53;9.00;99.90
47600;DHT22;33323;52.124;6.018;2024-03-08T11:25:38;8.80;99.90
47600;DHT22;33323;52.124;6.018;2024-03-08T11:28:17;8.70;99.90
47600;DHT22;33323;52.124;6.018;2024-03-08T11:33:40;8.70;99.90
47600;DHT22;33323;52.124;6.018;2024-03-08T11:36:12;8.70;99.90
47600;DHT22;33323;52.124;6.018;2024-03-08T11:38:44;8.80;99.90
47600;DHT22;33323;52.124;6.018;2024-03-08T11:41:20;8.80;99.90
47600;DHT22;33323;52.124;6.018;2024-03-08T11:43:49;9.00;99.90
47600;DHT22;33323;52.124;6.018;2024-03-08T11:46:18;9.20;99.90
47600;DHT22;33323;52.124;6.018;2024-03-08T11:48:47;9.10;99.90
47600;DHT22;33323;52.124;6.018;2024-03-08T11:51:15;9.00;99.90
47600;DHT22;33323;52.124;6.018;2024-03-08T11:53:46;9.30;99.90
47600;DHT22;33323;52.124;6.018;2024-03-08T11:56:16;9.20;99.90
47600;DHT22;33323;52.124;6.018;2024-03-08T11:58:53;9.20;99.90
47600;DHT22;33323;52.124;6.018;2024-03-08T12:01:24;9.30;99.90
47600;DHT22;33323;52.124;6.018;2024-03-08T12:03:56;9.40;99.90
47600;DHT22;33323;52.124;6.018;2024-03-08T12:06:37;9.60;99.90
47600;DHT22;33323;52.124;6.018;2024-03-08T12:09:09;9.50;99.90
47600;DHT22;33323;52.124;6.018;2024-03-08T12:11:37;9.40;99.90
47600;DHT22;33323;52.124;6.018;2024-03-08T12:14:04;9.60;99.90
47600;DHT22;33323;52.124;6.018;2024-03-08T12:16:33;9.60;99.90
47600;DHT22;33323;52.124;6.018;2024-03-08T12:19:00;9.60;99.90
47600;DHT22;33323;52.124;6.018;2024-03-08T12:21:32;9.70;99.90
47600;DHT22;33323;52.124;6.018;2024-03-08T12:24:08;9.70;99.90
47600;DHT22;33323;52.124;6.018;2024-03-08T12:26:37;9.50;99.90
47600;DHT22;33323;52.124;6.018;2024-03-08T12:29:25;9.70;99.90
47600;DHT22;33323;52.124;6.018;2024-03-08T12:31:55;9.60;99.90
47600;DHT22;33323;52.124;6.018;2024-03-08T12:34:32;9.60;99.90
47600;DHT22;33323;52.124;6.018;2024-03-08T12:37:00;9.70;99.90
47600;DHT22;33323;52.124;6.018;2024-03-08T12:39:27;9.90;99.90
47600;DHT22;33323;52.124;6.018;2024-03-08T12:41:57;9.90;99.90
47600;DHT22;33323;52.124;6.018;2024-03-08T12:44:24;9.60;99.90
47600;DHT22;33323;52.124;6.018;2024-03-08T12:46:53;9.70;99.90
47600;DHT22;33323;52.124;6.018;2024-03-08T12:49:21;9.60;99.90
47600;DHT22;33323;52.124;6.018;2024-03-08T12:51:50;9.70;99.90
47600;DHT22;33323;52.124;6.018;2024-03-08T12:54:20;9.80;99.90
47600;DHT22;33323;52.124;6.018;2024-03-08T12:56:51;9.80;99.90
47600;DHT22;33323;52.124;6.018;2024-03-08T12:59:21;10.10;99.90
47600;DHT22;33323;52.124;6.018;2024-03-08T13:01:52;10.20;99.90
47600;DHT22;33323;52.124;6.018;2024-03-08T13:04:27;10.10;99.90
47600;DHT22;33323;52.124;6.018;2024-03-08T13:07:00;10.00;99.90
47600;DHT22;33323;52.124;6.018;2024-03-08T13:09:28;10.00;99.90
47600;DHT22;33323;52.124;6.018;2024-03-08T13:11:56;10.10;99.90
47600;DHT22;33323;52.124;6.018;2024-03-08T13:14:25;10.10;99.90
47600;DHT22;33323;52.124;6.018;2024-03-08T13:16:53;10.20;99.90
47600;DHT22;33323;52.124;6.018;2024-03-08T13:19:22;9.90;99.90
47600;DHT22;33323;52.124;6.018;2024-03-08T13:21:50;9.90;99.90
47600;DHT22;33323;52.124;6.018;2024-03-08T13:24:18;9.80;99.90
47600;DHT22;33323;52.124;6.018;2024-03-08T13:26:47;9.80;99.90
47600;DHT22;33323;52.124;6.018;2024-03-08T13:29:15;9.70;99.90
47600;DHT22;33323;52.124;6.018;2024-03-08T13:31:42;9.80;99.90
47600;DHT22;33323;52.124;6.018;2024-03-08T13:34:09;9.90;99.90
47600;DHT22;33323;52.124;6.018;2024-03-08T13:36:38;10.00;99.90
47600;DHT22;33323;52.124;6.018;2024-03-08T13:39:11;10.30;99.90
47600;DHT22;33323;52.124;6.018;2024-03-08T13:41:45;10.40;99.90
47600;DHT22;33323;52.124;6.018;2024-03-08T13:44:12;10.40;99.90
47600;DHT22;33323;52.124;6.018;2024-03-08T13:46:39;10.80;99.90
47600;DHT22;33323;52.124;6.018;2024-03-08T13:49:06;10.50;99.90
47600;DHT22;33323;52.124;6.018;2024-03-08T13:51:35;10.40;99.90
47600;DHT22;33323;52.124;6.018;2024-03-08T13:54:02;10.10;99.90
47600;DHT22;33323;52.124;6.018;2024-03-08T13:56:33;9.90;99.90
47600;DHT22;33323;52.124;6.018;2024-03-08T13:59:01;9.90;99.90
47600;DHT22;33323;52.124;6.018;2024-03-08T14:01:29;10.00;99.90
47600;DHT22;33323;52.124;6.018;2024-03-08T14:03:57;10.10;99.90
47600;DHT22;33323;52.124;6.018;2024-03-08T14:06:24;10.00;99.90
47600;DHT22;33323;52.124;6.018;2024-03-08T14:08:52;10.00;99.90
47600;DHT22;33323;52.124;6.018;2024-03-08T14:11:20;10.10;99.90
47600;DHT22;33323;52.124;6.018;2024-03-08T14:13:47;10.10;99.90
47600;DHT22;33323;52.124;6.018;2024-03-08T14:16:15;10.00;99.90
47600;DHT22;33323;52.124;6.018;2024-03-08T14:18:42;9.80;99.90
47600;DHT22;33323;52.124;6.018;2024-03-08T14:21:09;9.70;99.90
47600;DHT22;33323;52.124;6.018;2024-03-08T14:23:37;10.00;99.90
47600;DHT22;33323;52.124;6.018;2024-03-08T14:26:04;9.90;99.90
47600;DHT22;33323;52.124;6.018;2024-03-08T14:28:34;9.80;99.90
47600;DHT22;33323;52.124;6.018;2024-03-08T14:31:01;9.70;99.90
47600;DHT22;33323;52.124;6.018;2024-03-08T14:33:33;9.90;99.90
47600;DHT22;33323;52.124;6.018;2024-03-08T14:36:00;9.90;99.90
47600;DHT22;33323;52.124;6.018;2024-03-08T14:38:28;10.00;99.90
47600;DHT22;33323;52.124;6.018;2024-03-08T14:40:57;10.10;99.90
47600;DHT22;33323;52.124;6.018;2024-03-08T14:43:24;10.10;99.90
47600;DHT22;33323;52.124;6.018;2024-03-08T14:45:53;9.90;99.90
47600;DHT22;33323;52.124;6.018;2024-03-08T14:48:20;9.90;99.90
47600;DHT22;33323;52.124;6.018;2024-03-08T14:50:48;9.90;99.90
47600;DHT22;33323;52.124;6.018;2024-03-08T14:53:15;9.80;99.90
47600;DHT22;33323;52.124;6.018;2024-03-08T14:55:43;9.90;99.90
47600;DHT22;33323;52.124;6.018;2024-03-08T14:58:14;10.00;99.90
47600;DHT22;33323;52.124;6.018;2024-03-08T15:00:42;9.90;99.90
47600;DHT22;33323;52.124;6.018;2024-03-08T15:03:10;9.90;99.90
47600;DHT22;33323;52.124;6.018;2024-03-08T15:05:43;9.90;99.90
47600;DHT22;33323;52.124;6.018;2024-03-08T15:08:14;9.90;99.90
47600;DHT22;33323;52.124;6.018;2024-03-08T15:10:47;9.80;99.90
47600;DHT22;33323;52.124;6.018;2024-03-08T15:13:22;9.70;99.90
47600;DHT22;33323;52.124;6.018;2024-03-08T15:15:50;9.70;99.90
47600;DHT22;33323;52.124;6.018;2024-03-08T15:18:26;9.70;99.90
47600;DHT22;33323;52.124;6.018;2024-03-08T15:21:05;9.80;99.90
47600;DHT22;33323;52.124;6.018;2024-03-08T15:23:35;9.70;99.90
47600;DHT22;33323;52.124;6.018;2024-03-08T15:26:03;9.80;99.90
47600;DHT22;33323;52.124;6.018;2024-03-08T15:28:34;9.70;99.90
47600;DHT22;33323;52.124;6.018;2024-03-08T15:31:05;9.70;99.90
47600;DHT22;33323;52.124;6.018;2024-03-08T15:33:34;9.70;99.90
47600;DHT22;33323;52.124;6.018;2024-03-08T15:36:06;9.70;99.90
47600;DHT22;33323;52.124;6.018;2024-03-08T15:38:36;9.70;99.90
47600;DHT22;33323;52.124;6.018;2024-03-08T15:41:04;9.80;99.90
47600;DHT22;33323;52.124;6.018;2024-03-08T15:43:39;9.70;99.90
47600;DHT22;33323;52.124;6.018;2024-03-08T15:46:08;9.60;99.90
47600;DHT22;33323;52.124;6.018;2024-03-08T15:48:37;9.60;99.90
47600;DHT22;33323;52.124;6.018;2024-03-08T15:51:05;9.50;99.90
47600;DHT22;33323;52.124;6.018;2024-03-08T15:53:33;9.60;99.90
47600;DHT22;33323;52.124;6.018;2024-03-08T15:56:05;9.50;99.90
47600;DHT22;33323;52.124;6.018;2024-03-08T15:58:33;9.50;99.90